Time;durP1;ratioP1;P1;durP2;ratioP2;P2;SDS_P1;SDS_P2;PMS_P1;PMS_P2;Temp;Humidity;BMP_temperature;BMP_pressure;BME280_temperature;BME280_humidity;BME280_pressure;Samples;Min_cycle;Max_cycle;Signal;HPM_P1;HPM_P2
2021/11/29 00:04:45;;;;;;;5.32;2.67;;;;;;;0.46;100.00;100567.56;10581136;28;20044;-59
2021/11/29 00:09:47;;;;;;;6.78;2.90;;;;;;;0.29;100.00;100555.00;10564297;28;20058;-59
2021/11/29 00:14:50;;;;;;;6.82;4.03;;;;;;;0.33;100.00;100559.22;10581877;28;20054;-60
2021/11/29 00:19:52;;;;;;;7.28;3.72;;;;;;;0.24;100.00;100567.13;10581470;28;20058;-58
2021/11/29 00:24:55;;;;;;;7.53;3.45;;;;;;;0.23;100.00;100575.72;10581683;28;20047;-58
2021/11/29 00:29:57;;;;;;;6.80;3.08;;;;;;;0.33;100.00;100580.66;10563624;28;20043;-57
2021/11/29 00:35:00;;;;;;;7.80;3.33;;;;;;;0.43;100.00;100598.53;10581541;28;20043;-56
2021/11/29 00:40:04;;;;;;;9.38;3.55;;;;;;;0.57;100.00;100611.13;10581402;28;20055;-57
2021/11/29 00:45:08;;;;;;;6.72;2.63;;;;;;;0.62;100.00;100615.31;10563196;28;20055;-59
2021/11/29 00:50:13;;;;;;;3.33;1.80;;;;;;;0.49;100.00;100601.84;10581228;28;20047;-59
2021/11/29 00:55:16;;;;;;;2.78;1.63;;;;;;;0.51;100.00;100599.22;10581017;28;20052;-58
2021/11/29 01:00:20;;;;;;;1.95;1.75;;;;;;;0.64;100.00;100604.97;10581107;28;20054;-57
2021/11/29 01:05:23;;;;;;;5.70;2.28;;;;;;;0.74;100.00;100591.91;10580818;28;20051;-58
2021/11/29 01:10:30;;;;;;;2.42;2.33;;;;;;;0.95;100.00;100599.22;10581004;28;20058;-57
2021/11/29 01:15:34;;;;;;;2.90;1.10;;;;;;;0.87;100.00;100597.63;10581033;28;20054;-59
2021/11/29 01:20:38;;;;;;;5.93;1.23;;;;;;;0.87;100.00;100592.47;10588965;28;20043;-59
2021/11/29 01:25:41;;;;;;;1.27;0.73;;;;;;;0.91;100.00;100601.88;10588297;28;20051;-59
2021/11/29 01:30:43;;;;;;;3.15;0.95;;;;;;;0.82;100.00;100594.31;10587859;28;20062;-58
2021/11/29 01:35:46;;;;;;;5.72;1.60;;;;;;;0.80;100.00;100597.81;10587597;28;20048;-59
2021/11/29 01:40:49;;;;;;;4.88;1.10;;;;;;;0.80;100.00;100614.13;10587633;28;20139;-59
2021/11/29 01:45:53;;;;;;;4.43;1.67;;;;;;;0.77;100.00;100600.44;10587851;28;20044;-55
2021/11/29 01:50:58;;;;;;;8.98;1.08;;;;;;;0.79;100.00;100616.72;10587118;28;20044;-56
2021/11/29 01:56:00;;;;;;;2.58;1.15;;;;;;;0.76;100.00;100619.34;10586693;28;20051;-59
2021/11/29 02:01:07;;;;;;;1.90;1.00;;;;;;;0.76;100.00;100614.19;10586932;28;20134;-59
2021/11/29 02:06:10;;;;;;;3.05;1.38;;;;;;;0.64;100.00;100603.28;10586478;28;20380;-59
2021/11/29 02:11:13;;;;;;;2.92;0.90;;;;;;;0.58;100.00;100608.53;10586155;28;20047;-56
2021/11/29 02:16:15;;;;;;;2.95;1.40;;;;;;;0.45;100.00;100602.75;10586293;28;20052;-56
2021/11/29 02:21:21;;;;;;;4.97;0.80;;;;;;;0.48;100.00;100610.44;10585865;28;20054;-53
2021/11/29 02:26:26;;;;;;;6.18;1.20;;;;;;;0.45;100.00;100607.91;10585580;28;20487;-58
2021/11/29 02:31:32;;;;;;;3.78;0.90;;;;;;;0.47;100.00;100602.72;10584521;28;20502;-59
2021/11/29 02:36:35;;;;;;;2.45;1.13;;;;;;;0.44;100.00;100595.06;10585251;28;20051;-54
2021/11/29 02:41:38;;;;;;;6.40;1.40;;;;;;;0.47;100.00;100601.03;10584922;28;20051;-58
2021/11/29 02:46:42;;;;;;;3.30;1.00;;;;;;;0.47;100.00;100606.19;10585226;28;20054;-56
2021/11/29 02:51:59;;;;;;;0.68;0.60;;;;;;;0.52;100.00;100614.66;10584059;28;20395;-60
2021/11/29 02:57:05;;;;;;;1.63;0.82;;;;;;;0.40;100.00;100635.47;10566107;28;20392;-56
2021/11/29 03:02:10;;;;;;;4.75;1.33;;;;;;;0.39;100.00;100631.22;10583827;28;20058;-59
2021/11/29 03:07:13;;;;;;;3.50;0.73;;;;;;;0.27;100.00;100629.72;10584549;28;20043;-57
2021/11/29 03:12:16;;;;;;;1.23;1.00;;;;;;;0.34;100.00;100631.28;10583837;28;20047;-59
2021/11/29 03:17:18;;;;;;;0.65;0.65;;;;;;;0.30;100.00;100626.22;10583753;28;20399;-59
2021/11/29 03:22:21;;;;;;;4.95;0.82;;;;;;;0.36;100.00;100620.97;10583172;28;20484;-55
2021/11/29 03:27:23;;;;;;;2.05;0.60;;;;;;;0.24;100.00;100627.19;10583309;28;20047;-58
2021/11/29 03:32:25;;;;;;;2.67;1.08;;;;;;;0.31;100.00;100638.22;10583013;28;20388;-57
2021/11/29 03:37:28;;;;;;;2.72;0.90;;;;;;;0.31;100.00;100635.66;10583149;28;20047;-60
2021/11/29 03:42:30;;;;;;;1.83;1.52;;;;;;;0.23;100.00;100634.94;10582658;28;20058;-58
2021/11/29 03:47:33;;;;;;;1.73;1.10;;;;;;;0.27;100.00;100641.72;10582775;28;20083;-56
2021/11/29 03:52:35;;;;;;;3.55;0.93;;;;;;;0.25;100.00;100636.59;10582672;28;20047;-58
2021/11/29 03:57:37;;;;;;;2.53;1.05;;;;;;;0.24;100.00;100637.47;10582674;28;20043;-60
2021/11/29 04:02:40;;;;;;;4.07;1.10;;;;;;;0.17;100.00;100641.88;10582107;28;20043;-56
2021/11/29 04:07:43;;;;;;;0.80;0.80;;;;;;;0.17;100.00;100653.91;10582267;28;20055;-59
2021/11/29 04:12:45;;;;;;;1.65;0.95;;;;;;;0.22;100.00;100649.53;10581606;28;20052;-59
2021/11/29 04:17:47;;;;;;;2.47;1.08;;;;;;;0.24;100.00;100663.25;10581732;28;20090;-56
2021/11/29 04:22:50;;;;;;;3.30;1.30;;;;;;;0.28;100.00;100657.16;10581462;28;20047;-59
2021/11/29 04:27:55;;;;;;;3.58;0.93;;;;;;;0.32;100.00;100670.81;10582106;28;20054;-58
2021/11/29 04:32:58;;;;;;;5.45;1.40;;;;;;;0.30;100.00;100678.59;10581396;28;20401;-57
2021/11/29 04:38:00;;;;;;;4.57;1.55;;;;;;;0.41;100.00;100680.13;10581437;28;20506;-59
2021/11/29 04:43:03;;;;;;;3.22;1.02;;;;;;;0.33;100.00;100677.69;10581031;28;20051;-57
2021/11/29 04:48:05;;;;;;;6.88;1.00;;;;;;;0.39;100.00;100690.47;10581193;28;20050;-59
2021/11/29 04:53:07;;;;;;;3.08;0.95;;;;;;;0.30;100.00;100688.03;10585910;28;20044;-59
2021/11/29 04:58:10;;;;;;;3.35;1.40;;;;;;;0.48;100.00;100695.44;10589744;28;20054;-59
2021/11/29 05:03:12;;;;;;;1.65;1.02;;;;;;;0.51;100.00;100718.56;10588458;28;20412;-60
2021/11/29 05:08:14;;;;;;;5.68;1.35;;;;;;;0.41;100.00;100711.03;10588724;28;20050;-59
2021/11/29 05:13:18;;;;;;;6.97;0.80;;;;;;;0.26;100.00;100702.69;10588556;28;20043;-56
2021/11/29 05:18:21;;;;;;;4.00;1.10;;;;;;;0.23;100.00;100697.56;10589181;28;20059;-59
2021/11/29 05:23:23;;;;;;;3.85;1.10;;;;;;;0.31;100.00;100707.75;10588122;28;20437;-57
2021/11/29 05:28:26;;;;;;;2.45;1.33;;;;;;;0.17;100.00;100703.69;10588432;28;20055;-57
2021/11/29 05:33:28;;;;;;;2.85;1.50;;;;;;;0.13;100.00;100707.16;10588105;28;20040;-58
2021/11/29 05:38:30;;;;;;;3.85;1.60;;;;;;;0.33;100.00;100714.56;10587816;28;20055;-58
2021/11/29 05:43:33;;;;;;;4.97;1.33;;;;;;;0.31;100.00;100712.91;10569129;28;20380;-60
2021/11/29 05:48:35;;;;;;;8.93;1.98;;;;;;;0.26;100.00;100717.28;10587233;28;20051;-56
2021/11/29 05:53:38;;;;;;;4.20;2.10;;;;;;;0.33;100.00;100721.47;10586653;28;20050;-59
2021/11/29 05:58:40;;;;;;;3.45;1.58;;;;;;;0.29;100.00;100735.28;10587275;28;20043;-57
2021/11/29 06:03:44;;;;;;;2.60;1.77;;;;;;;0.24;100.00;100726.78;10585126;28;20052;-56
2021/11/29 06:08:46;;;;;;;7.68;2.72;;;;;;;0.41;100.00;100729.06;10586571;28;20044;-57
2021/11/29 06:13:50;;;;;;;6.25;2.65;;;;;;;0.34;100.00;100742.03;10586200;28;20051;-57
2021/11/29 06:18:52;;;;;;;6.20;2.45;;;;;;;0.32;100.00;100748.06;10586617;28;20047;-57
2021/11/29 06:23:55;;;;;;;3.90;2.22;;;;;;;0.40;100.00;100751.38;10585854;28;20044;-58
2021/11/29 06:28:57;;;;;;;3.63;2.58;;;;;;;0.42;100.00;100743.63;10585701;28;20048;-58
2021/11/29 06:33:59;;;;;;;11.55;2.88;;;;;;;0.45;100.00;100748.75;10585344;28;20052;-59
2021/11/29 06:39:02;;;;;;;8.15;3.28;;;;;;;0.34;100.00;100754.91;10585295;28;20044;-57
2021/11/29 06:44:04;;;;;;;5.90;3.40;;;;;;;0.38;100.00;100760.03;10584954;28;20044;-60
2021/11/29 06:49:07;;;;;;;8.35;3.53;;;;;;;0.41;100.00;100757.41;10584820;28;20054;-58
2021/11/29 06:54:09;;;;;;;8.77;3.55;;;;;;;0.33;100.00;100755.78;10584414;28;20040;-59
2021/11/29 06:59:12;;;;;;;4.93;3.53;;;;;;;0.39;100.00;100772.88;10584133;28;20403;-58
2021/11/29 07:04:18;;;;;;;7.22;3.38;;;;;;;0.47;100.00;100778.78;10583974;28;20475;-57
2021/11/29 07:09:21;;;;;;;5.88;3.60;;;;;;;0.48;100.00;100771.88;10583943;28;20479;-57
2021/11/29 07:14:23;;;;;;;14.15;4.75;;;;;;;0.47;100.00;100785.63;10565259;28;20521;-60
2021/11/29 07:19:26;;;;;;;8.68;4.80;;;;;;;0.59;100.00;100790.59;10565750;28;20062;-59
2021/11/29 07:24:28;;;;;;;4.20;3.80;;;;;;;0.55;100.00;100796.66;10583234;28;20118;-56
2021/11/29 07:29:31;;;;;;;6.25;5.18;;;;;;;0.59;100.00;100807.75;10583139;28;20055;-59
2021/11/29 07:34:33;;;;;;;9.20;4.25;;;;;;;0.63;100.00;100807.69;10583092;28;20052;-59
2021/11/29 07:39:36;;;;;;;12.07;4.82;;;;;;;0.69;100.00;100811.88;10583410;28;20052;-57
2021/11/29 07:44:38;;;;;;;8.20;4.60;;;;;;;0.67;100.00;100819.69;10582647;28;20508;-58
2021/11/29 07:49:40;;;;;;;8.43;4.28;;;;;;;0.63;100.00;100824.91;10582230;28;20407;-57
2021/11/29 07:54:43;;;;;;;8.60;4.63;;;;;;;0.67;100.00;100821.38;10582378;28;20051;-54
2021/11/29 07:59:46;;;;;;;13.60;5.18;;;;;;;0.67;100.00;100826.53;10582098;28;20064;-58
2021/11/29 08:04:54;;;;;;;6.93;4.85;;;;;;;0.82;100.00;100836.59;10582387;28;20044;-57
2021/11/29 08:09:57;;;;;;;11.00;4.82;;;;;;;0.91;100.00;100851.09;10563986;28;20055;-57
2021/11/29 08:14:59;;;;;;;5.20;3.75;;;;;;;0.97;100.00;100852.69;10581695;28;20040;-55
2021/11/29 08:20:02;;;;;;;3.97;3.38;;;;;;;1.02;100.00;100871.50;10581885;28;20043;-57
2021/11/29 08:25:06;;;;;;;7.38;4.82;;;;;;;1.13;100.00;100864.47;10563671;28;20058;-57
2021/11/29 08:30:11;;;;;;;7.30;3.10;;;;;;;1.22;100.00;100873.75;10590417;28;20047;-57
2021/11/29 08:35:15;;;;;;;3.20;2.80;;;;;;;1.44;100.00;100895.69;10572252;28;20040;-58
2021/11/29 08:40:26;;;;;;;5.45;2.92;;;;;;;1.52;100.00;100885.25;10589815;28;20503;-56
2021/11/29 08:45:28;;;;;;;11.23;2.50;;;;;;;1.65;100.00;100901.38;10590064;28;20043;-60
2021/11/29 08:50:31;;;;;;;8.10;2.85;;;;;;;1.72;100.00;100910.69;10589382;28;20492;-58
2021/11/29 08:55:35;;;;;;;5.40;2.33;;;;;;;1.86;100.00;100923.34;10571667;28;20043;-58
2021/11/29 09:00:41;;;;;;;3.25;1.85;;;;;;;1.89;100.00;100925.84;10571526;28;20526;-56
2021/11/29 09:05:46;;;;;;;5.53;1.80;;;;;;;2.08;100.00;100943.56;10589149;28;20129;-57
2021/11/29 09:10:50;;;;;;;9.73;2.92;;;;;;;2.22;100.00;100944.16;10588839;28;20044;-58
2021/11/29 09:16:14;;;;;;;8.20;2.45;;;;;;;2.26;100.00;100958.72;10553936;28;20153;-56
2021/11/29 09:21:19;;;;;;;9.43;2.10;;;;;;;2.81;100.00;100979.09;10549419;28;20044;-60
2021/11/29 09:26:22;;;;;;;6.03;1.45;;;;;;;7.25;93.54;101059.84;10527313;28;20055;-59
2021/11/29 09:31:26;;;;;;;5.22;2.47;;;;;;;7.92;81.16;101123.19;10556172;28;20040;-58
2021/11/29 09:36:28;;;;;;;3.92;1.35;;;;;;;5.60;90.44;101042.31;10567456;28;20040;-59
2021/11/29 09:41:31;;;;;;;3.17;0.77;;;;;;;5.50;92.78;101038.31;10571729;28;20418;-58
2021/11/29 09:46:34;;;;;;;3.10;1.65;;;;;;;5.45;97.42;101048.84;10578331;28;20044;-57
2021/11/29 09:51:37;;;;;;;2.40;1.52;;;;;;;4.55;100.00;101037.69;10579808;28;20109;-59
2021/11/29 09:56:40;;;;;;;5.68;1.35;;;;;;;4.06;100.00;101045.06;10583605;28;20403;-58
2021/11/29 10:01:42;;;;;;;6.40;1.45;;;;;;;4.57;100.00;101053.22;10586962;28;20067;-59
2021/11/29 10:06:52;;;;;;;6.20;1.63;;;;;;;4.12;100.00;101045.81;10586582;28;20051;-57
2021/11/29 10:11:59;;;;;;;4.35;1.30;;;;;;;3.66;100.00;101040.91;10586743;28;20050;-59
2021/11/29 10:17:02;;;;;;;2.25;1.50;;;;;;;3.51;100.00;101046.47;10568642;28;20048;-57
2021/11/29 10:22:33;;;;;;;7.57;1.23;;;;;;;4.03;100.00;101085.75;10586081;28;20040;-57
2021/11/29 10:27:38;;;;;;;3.83;1.25;;;;;;;4.63;100.00;101105.75;10565058;28;20047;-57
2021/11/29 10:32:43;;;;;;;3.80;1.13;;;;;;;4.81;100.00;101107.00;10567932;28;20039;-57
2021/11/29 10:37:47;;;;;;;3.05;1.33;;;;;;;4.91;100.00;101097.22;10585505;28;20050;-56
2021/11/29 10:42:50;;;;;;;3.83;1.00;;;;;;;5.07;100.00;101104.53;10584906;28;20399;-57
2021/11/29 10:47:54;;;;;;;2.20;1.10;;;;;;;5.10;100.00;101109.66;10566652;28;20047;-58
2021/11/29 10:53:11;;;;;;;6.82;1.30;;;;;;;4.88;100.00;101114.63;10584442;28;20043;-58
2021/11/29 10:58:13;;;;;;;1.58;1.33;;;;;;;5.90;100.00;101136.59;10585077;28;20048;-57
2021/11/29 11:03:15;;;;;;;1.48;1.33;;;;;;;5.36;100.00;101120.09;10584052;28;20048;-56
2021/11/29 11:08:18;;;;;;;2.03;1.02;;;;;;;5.48;100.00;101124.06;10584148;28;20046;-58
2021/11/29 11:13:21;;;;;;;0.82;0.82;;;;;;;5.81;100.00;101138.63;10584169;28;20040;-60
2021/11/29 11:18:37;;;;;;;1.52;1.42;;;;;;;5.70;100.00;101120.78;10583886;28;20048;-57
2021/11/29 11:23:39;;;;;;;2.25;1.05;;;;;;;5.22;100.00;101104.91;10565258;28;20475;-56
2021/11/29 11:28:42;;;;;;;1.70;1.00;;;;;;;5.26;100.00;101113.50;10583359;28;20491;-57
2021/11/29 11:33:55;;;;;;;1.45;0.80;;;;;;;5.28;100.00;101119.47;10582990;28;20054;-59
2021/11/29 11:39:04;;;;;;;3.50;1.35;;;;;;;5.47;100.00;101126.72;10583045;28;20399;-58
2021/11/29 11:44:07;;;;;;;1.60;1.35;;;;;;;5.54;100.00;101128.22;10582693;28;20052;-54
2021/11/29 11:49:09;;;;;;;6.45;1.20;;;;;;;6.04;100.00;101130.97;10582369;28;20047;-56
2021/11/29 11:54:11;;;;;;;3.13;0.82;;;;;;;5.53;100.00;101123.91;10564638;28;20047;-59
2021/11/29 11:59:18;;;;;;;8.48;1.60;;;;;;;5.49;100.00;101119.72;10582380;28;20059;-57
2021/11/29 12:04:20;;;;;;;3.17;1.42;;;;;;;5.24;100.00;101114.41;10582183;28;20052;-58
2021/11/29 12:09:30;;;;;;;3.65;1.30;;;;;;;5.11;100.00;101119.13;10582245;28;20054;-58
2021/11/29 12:14:34;;;;;;;5.10;1.67;;;;;;;5.07;100.00;101115.75;10581841;28;20411;-57
2021/11/29 12:19:40;;;;;;;2.90;1.30;;;;;;;4.90;100.00;101108.47;10581950;28;20062;-60
2021/11/29 12:24:52;;;;;;;1.63;1.30;;;;;;;4.87;100.00;101116.34;10581929;28;20040;-55
2021/11/29 12:29:55;;;;;;;3.95;1.15;;;;;;;4.84;100.00;101119.00;10581742;28;20051;-54
2021/11/29 12:35:02;;;;;;;2.20;1.20;;;;;;;5.13;100.00;101125.13;10581606;28;20048;-55
2021/11/29 12:40:08;;;;;;;2.30;1.77;;;;;;;5.68;100.00;101138.16;10581974;28;20047;-58
2021/11/29 12:45:16;;;;;;;2.53;1.38;;;;;;;5.60;100.00;101141.03;10581341;28;20040;-57
2021/11/29 12:50:44;;;;;;;6.40;1.55;;;;;;;5.58;100.00;101141.06;10581724;28;20398;-58
2021/11/29 12:55:55;;;;;;;2.75;1.48;;;;;;;5.17;100.00;101137.97;10581357;28;20047;-57
2021/11/29 13:01:11;;;;;;;2.25;2.05;;;;;;;5.17;100.00;101137.97;10581412;28;20062;-56
2021/11/29 13:06:15;;;;;;;5.10;1.80;;;;;;;4.98;100.00;101142.84;10580972;28;20126;-56
2021/11/29 13:11:27;;;;;;;4.43;2.33;;;;;;;4.96;100.00;101148.94;10581038;28;20518;-58
2021/11/29 13:16:50;;;;;;;10.55;3.92;;;;;;;4.78;100.00;101135.63;10588978;28;20047;-57
2021/11/29 13:22:06;;;;;;;7.30;2.72;;;;;;;4.63;100.00;101138.63;10588589;28;20054;-58
2021/11/29 13:27:22;;;;;;;9.38;3.20;;;;;;;5.00;100.00;101159.22;10588398;28;20044;-56
2021/11/29 13:32:28;;;;;;;5.22;3.05;;;;;;;4.68;100.00;101144.53;10588510;28;20054;-57
2021/11/29 13:37:34;;;;;;;6.20;3.80;;;;;;;4.81;100.00;101161.47;10587872;28;20513;-54
2021/11/29 13:42:48;;;;;;;2.85;2.20;;;;;;;4.52;100.00;101146.69;10587655;28;20086;-56
2021/11/29 13:48:04;;;;;;;3.25;2.55;;;;;;;4.41;100.00;101152.16;10587504;28;20044;-57
2021/11/29 13:53:13;;;;;;;3.45;2.03;;;;;;;4.34;100.00;101158.41;10587160;28;20068;-59
2021/11/29 13:58:19;;;;;;;5.60;2.58;;;;;;;4.03;100.00;101145.34;10587254;28;20051;-58
2021/11/29 14:03:43;;;;;;;1.85;1.70;;;;;;;4.07;100.00;101223.00;10587207;28;20081;-59
2021/11/29 14:08:47;;;;;;;5.38;2.25;;;;;;;4.20;100.00;101179.50;10586601;28;20082;-55
2021/11/29 14:13:55;;;;;;;2.30;1.85;;;;;;;4.27;100.00;101177.59;10586307;28;20040;-54
2021/11/29 14:19:06;;;;;;;3.28;1.83;;;;;;;4.55;100.00;101195.03;10586354;28;20043;-56
2021/11/29 14:24:10;;;;;;;4.30;2.38;;;;;;;4.56;100.00;101205.38;10585174;28;20047;-58
2021/11/29 14:29:22;;;;;;;3.70;2.30;;;;;;;4.32;100.00;101199.09;10585654;28;20050;-59
2021/11/29 14:34:26;;;;;;;6.10;2.22;;;;;;;4.42;100.00;101210.03;10586405;28;20046;-60
2021/11/29 14:39:32;;;;;;;5.47;2.40;;;;;;;4.24;100.00;101201.00;10585490;28;20055;-59
2021/11/29 14:44:48;;;;;;;3.95;1.92;;;;;;;4.25;100.00;101213.06;10585113;28;20403;-58
2021/11/29 14:49:52;;;;;;;2.78;2.00;;;;;;;4.27;100.00;101212.16;10585385;28;20043;-56
2021/11/29 14:54:54;;;;;;;6.60;2.47;;;;;;;4.21;100.00;101212.28;10584327;28;20043;-55
2021/11/29 15:00:04;;;;;;;2.95;1.60;;;;;;;4.09;100.00;101212.59;10584543;28;20059;-56
2021/11/29 15:05:17;;;;;;;3.25;2.20;;;;;;;4.07;100.00;101230.75;10584442;28;20054;-57
2021/11/29 15:10:23;;;;;;;2.25;1.75;;;;;;;3.81;100.00;101228.75;10584087;28;20507;-56
2021/11/29 15:15:30;;;;;;;7.68;2.75;;;;;;;4.22;100.00;101245.09;10583981;28;20043;-56
2021/11/29 15:20:44;;;;;;;2.20;1.88;;;;;;;4.01;100.00;101238.66;10584442;28;20044;-58
2021/11/29 15:25:53;;;;;;;2.78;1.85;;;;;;;3.78;100.00;101246.09;10565518;28;20527;-59
2021/11/29 15:30:56;;;;;;;5.70;2.67;;;;;;;4.21;100.00;101248.56;10583498;28;20044;-57
2021/11/29 15:35:59;;;;;;;10.18;2.40;;;;;;;3.80;100.00;101247.78;10583289;28;20104;-57
2021/11/29 15:41:11;;;;;;;4.35;2.42;;;;;;;3.59;100.00;101250.84;10565000;28;20047;-56
2021/11/29 15:46:24;;;;;;;2.22;1.92;;;;;;;3.40;100.00;101238.28;10582817;28;20043;-57
2021/11/29 15:51:30;;;;;;;3.17;2.22;;;;;;;3.47;100.00;101250.22;10582905;28;20059;-57
2021/11/29 15:56:33;;;;;;;7.07;2.50;;;;;;;3.04;100.00;101245.88;10582455;28;20484;-53
2021/11/29 16:01:36;;;;;;;4.18;2.00;;;;;;;3.05;100.00;101250.16;10582342;28;20544;-58
2021/11/29 16:06:40;;;;;;;4.93;2.53;;;;;;;3.10;100.00;101257.84;10581965;28;20483;-57
2021/11/29 16:11:43;;;;;;;4.07;2.53;;;;;;;3.21;100.00;101267.97;10581958;28;20039;-58
2021/11/29 16:16:46;;;;;;;4.38;1.45;;;;;;;3.23;100.00;101277.44;10582193;28;20043;-55
2021/11/29 16:21:48;;;;;;;4.57;1.80;;;;;;;3.28;100.00;101279.94;10581666;28;20050;-53
2021/11/29 16:26:50;;;;;;;4.55;2.15;;;;;;;3.02;100.00;101276.09;10581508;28;20475;-56
2021/11/29 16:31:53;;;;;;;5.57;1.77;;;;;;;3.12;100.00;101289.72;10581573;28;20055;-57
2021/11/29 16:36:56;;;;;;;3.67;1.48;;;;;;;3.14;100.00;101288.81;10581758;28;20050;-57
2021/11/29 16:41:58;;;;;;;5.32;1.95;;;;;;;3.21;100.00;101293.88;10581561;28;20050;-56
2021/11/29 16:47:01;;;;;;;2.20;1.52;;;;;;;3.10;100.00;101286.31;10582471;28;20483;-57
2021/11/29 16:52:04;;;;;;;1.95;1.00;;;;;;;3.05;100.00;101304.50;10571740;28;20048;-58
2021/11/29 16:57:06;;;;;;;1.30;1.20;;;;;;;3.10;100.00;101305.28;10589762;28;20047;-58
2021/11/29 17:02:09;;;;;;;5.43;1.50;;;;;;;2.90;100.00;101313.38;10589497;28;20055;-56
2021/11/29 17:07:12;;;;;;;8.95;4.60;;;;;;;2.88;100.00;101312.56;10588920;28;20048;-55
2021/11/29 17:12:14;;;;;;;4.45;3.00;;;;;;;2.92;100.00;101323.69;10588819;28;20400;-57
2021/11/29 17:17:17;;;;;;;4.53;1.98;;;;;;;3.04;100.00;101318.31;10589068;28;20065;-56
2021/11/29 17:22:19;;;;;;;4.10;3.60;;;;;;;3.08;100.00;101327.72;10588645;28;20054;-59
2021/11/29 17:27:48;;;;;;;4.85;3.40;;;;;;;3.10;100.00;101325.97;10587969;28;20040;-58
2021/11/29 17:32:50;;;;;;;3.97;2.20;;;;;;;3.06;100.00;101337.25;10588216;28;20048;-54
2021/11/29 17:37:52;;;;;;;3.45;1.83;;;;;;;3.09;100.00;101344.97;10569795;28;20057;-57
2021/11/29 17:42:55;;;;;;;6.32;2.03;;;;;;;3.10;100.00;101338.06;10587973;28;20051;-57
2021/11/29 17:47:57;;;;;;;3.97;2.30;;;;;;;3.23;100.00;101342.13;10588073;28;20048;-57
2021/11/29 17:53:00;;;;;;;3.97;2.40;;;;;;;3.17;100.00;101339.66;10587260;28;20117;-58
2021/11/29 17:58:02;;;;;;;5.97;2.35;;;;;;;3.16;100.00;101325.00;10586942;28;20055;-56
2021/11/29 18:03:06;;;;;;;1.95;1.67;;;;;;;3.19;100.00;101347.38;10587250;28;20403;-54
2021/11/29 18:08:24;;;;;;;1.95;1.83;;;;;;;3.19;100.00;101347.38;10586692;28;20043;-56
2021/11/29 18:13:28;;;;;;;2.95;2.17;;;;;;;3.14;100.00;101347.47;10586841;28;20047;-56
2021/11/29 18:18:33;;;;;;;1.90;1.77;;;;;;;3.19;100.00;101344.81;10586453;28;20055;-56
2021/11/29 18:23:37;;;;;;;3.30;2.10;;;;;;;3.09;100.00;101346.69;10586699;28;20043;-56
2021/11/29 18:28:40;;;;;;;6.82;5.25;;;;;;;3.20;100.00;101346.53;10585903;28;20059;-58
2021/11/29 18:33:43;;;;;;;8.27;2.40;;;;;;;3.06;100.00;101346.75;10585734;28;20065;-58
2021/11/29 18:38:46;;;;;;;3.15;2.47;;;;;;;3.10;100.00;101338.91;10585764;28;20048;-54
2021/11/29 18:43:49;;;;;;;2.75;2.17;;;;;;;3.03;100.00;101334.72;10585292;28;20058;-55
2021/11/29 18:48:51;;;;;;;9.02;2.85;;;;;;;3.09;100.00;101334.63;10584893;28;20517;-56
2021/11/29 18:53:54;;;;;;;5.68;3.13;;;;;;;3.13;100.00;101338.00;10584776;28;20050;-55
2021/11/29 18:58:56;;;;;;;5.97;2.80;;;;;;;3.14;100.00;101352.63;10585060;28;20050;-58
2021/11/29 19:03:59;;;;;;;1.90;1.80;;;;;;;3.11;100.00;101348.38;10584161;28;20056;-56
2021/11/29 19:09:02;;;;;;;3.65;2.28;;;;;;;3.13;100.00;101348.38;10583486;28;20051;-57
2021/11/29 19:14:05;;;;;;;6.35;2.33;;;;;;;3.04;100.00;101354.53;10565823;28;20488;-56
2021/11/29 19:19:07;;;;;;;4.35;2.60;;;;;;;3.06;100.00;101347.63;10583939;28;20051;-58
2021/11/29 19:24:12;;;;;;;4.35;2.45;;;;;;;3.27;100.00;101358.47;10583919;28;20048;-56
2021/11/29 19:29:14;;;;;;;4.82;2.58;;;;;;;3.36;100.00;101350.50;10583337;28;20514;-56
2021/11/29 19:34:17;;;;;;;3.75;2.17;;;;;;;3.41;100.00;101356.44;10583155;28;20050;-56
2021/11/29 19:39:20;;;;;;;5.07;2.03;;;;;;;3.47;100.00;101358.94;10583208;28;20059;-58
2021/11/29 19:44:23;;;;;;;1.65;1.55;;;;;;;3.54;100.00;101370.88;10582986;28;20044;-57
2021/11/29 19:49:26;;;;;;;4.22;1.58;;;;;;;3.67;100.00;101378.44;10582746;28;20039;-56
2021/11/29 19:54:33;;;;;;;4.20;2.25;;;;;;;3.64;100.00;101368.97;10582696;28;20065;-56
2021/11/29 19:59:36;;;;;;;5.35;2.10;;;;;;;3.65;100.00;101365.50;10582944;28;20051;-59
2021/11/29 20:04:38;;;;;;;6.70;3.67;;;;;;;3.76;100.00;101372.22;10582041;28;20055;-56
2021/11/29 20:09:41;;;;;;;5.10;3.63;;;;;;;3.80;100.00;101358.31;10581913;28;20050;-58
2021/11/29 20:14:43;;;;;;;5.57;3.25;;;;;;;3.91;100.00;101366.72;10581971;28;20087;-58
2021/11/29 20:19:46;;;;;;;11.30;3.05;;;;;;;3.82;100.00;101361.75;10581784;28;20395;-58
2021/11/29 20:24:48;;;;;;;4.32;3.55;;;;;;;3.87;100.00;101362.50;10580600;28;20395;-60
2021/11/29 20:29:51;;;;;;;5.93;1.83;;;;;;;3.88;100.00;101366.78;10581439;28;20039;-57
2021/11/29 20:34:54;;;;;;;5.35;1.85;;;;;;;3.81;100.00;101373.81;10582422;28;20043;-54
2021/11/29 20:40:01;;;;;;;3.63;1.77;;;;;;;3.75;100.00;101366.19;10581385;28;20061;-57
2021/11/29 20:45:05;;;;;;;2.85;1.33;;;;;;;3.62;100.00;101368.16;10564562;28;20494;-56
2021/11/29 20:50:10;;;;;;;4.95;1.75;;;;;;;3.41;100.00;101374.56;10581425;28;20048;-53
2021/11/29 20:55:13;;;;;;;6.40;1.55;;;;;;;3.42;100.00;101376.28;10581343;28;20043;-56
2021/11/29 21:00:16;;;;;;;3.25;1.55;;;;;;;3.41;100.00;101376.31;10580482;28;20051;-59
2021/11/29 21:05:18;;;;;;;8.75;2.00;;;;;;;3.37;100.00;101353.97;10580844;28;20129;-53
2021/11/29 21:10:21;;;;;;;6.15;2.05;;;;;;;3.33;100.00;101361.78;10580483;28;20097;-57
2021/11/29 21:15:23;;;;;;;3.38;1.60;;;;;;;3.30;100.00;101368.75;10580678;28;20044;-58
2021/11/29 21:20:27;;;;;;;5.88;2.33;;;;;;;3.28;100.00;101362.75;10580748;28;20093;-59
2021/11/29 21:25:30;;;;;;;8.68;2.08;;;;;;;3.31;100.00;101363.56;10580951;28;20040;-56
2021/11/29 21:30:32;;;;;;;1.92;1.70;;;;;;;3.31;100.00;101363.56;10579972;28;20055;-56
2021/11/29 21:35:35;;;;;;;9.10;2.28;;;;;;;3.32;100.00;101354.91;10585177;28;20044;-57
2021/11/29 21:40:39;;;;;;;7.07;2.08;;;;;;;3.34;100.00;101354.88;10587522;28;20400;-57
2021/11/29 21:45:41;;;;;;;10.02;2.20;;;;;;;3.32;100.00;101354.91;10587620;28;20118;-58
2021/11/29 21:50:44;;;;;;;5.60;2.20;;;;;;;3.44;100.00;101350.38;10587259;28;20048;-57
2021/11/29 21:55:46;;;;;;;7.00;2.08;;;;;;;3.30;100.00;101346.31;10587352;28;20050;-59
2021/11/29 22:00:49;;;;;;;3.75;2.00;;;;;;;3.38;100.00;101347.91;10586446;28;20051;-58
2021/11/29 22:05:52;;;;;;;5.03;2.40;;;;;;;3.39;100.00;101337.50;10587049;28;20101;-56
2021/11/29 22:10:54;;;;;;;2.55;1.75;;;;;;;3.39;100.00;101321.13;10586591;28;20043;-58
2021/11/29 22:15:57;;;;;;;7.82;2.65;;;;;;;3.23;100.00;101323.16;10586176;28;20388;-57
2021/11/29 22:20:59;;;;;;;3.25;2.10;;;;;;;3.21;100.00;101311.97;10586114;28;20052;-56
2021/11/29 22:26:01;;;;;;;8.30;2.10;;;;;;;3.24;100.00;101317.09;10586097;28;20525;-58
2021/11/29 22:31:04;;;;;;;7.15;1.90;;;;;;;3.22;100.00;101319.72;10585706;28;20501;-55
2021/11/29 22:36:06;;;;;;;4.97;1.92;;;;;;;3.17;100.00;101314.63;10585708;28;20113;-56
2021/11/29 22:41:09;;;;;;;6.90;1.95;;;;;;;3.20;100.00;101318.91;10585351;28;20051;-57
2021/11/29 22:46:12;;;;;;;3.95;1.77;;;;;;;3.22;100.00;101319.72;10584602;28;20039;-55
2021/11/29 22:51:15;;;;;;;5.22;1.55;;;;;;;3.25;100.00;101298.97;10584818;28;20044;-54
2021/11/29 22:56:19;;;;;;;11.98;2.55;;;;;;;3.33;100.00;101302.25;10585461;28;20058;-56
2021/11/29 23:01:28;;;;;;;8.05;2.55;;;;;;;3.31;100.00;101293.69;10584805;28;20051;-58
2021/11/29 23:06:31;;;;;;;9.98;2.08;;;;;;;3.29;100.00;101290.25;10584519;28;20123;-54
2021/11/29 23:11:37;;;;;;;3.30;1.80;;;;;;;3.27;100.00;101288.59;10583996;28;20108;-50
2021/11/29 23:16:41;;;;;;;5.25;2.50;;;;;;;3.26;100.00;101281.69;10584256;28;20047;-57
2021/11/29 23:21:43;;;;;;;6.80;2.08;;;;;;;3.29;100.00;101284.22;10583378;28;20412;-55